createdAt,value
2022-11-20T00:01:22.413Z,4.80
2022-11-20T00:03:49.470Z,4.90
2022-11-20T00:06:17.793Z,4.20
2022-11-20T00:08:44.703Z,4.57
2022-11-20T00:11:21.771Z,4.20
2022-11-20T00:13:50.062Z,4.43
2022-11-20T00:16:18.971Z,4.20
2022-11-20T00:18:46.441Z,4.68
2022-11-20T00:21:22.101Z,4.32
2022-11-20T00:23:52.513Z,4.20
2022-11-20T00:26:21.418Z,4.15
2022-11-20T00:28:59.241Z,4.25
2022-11-20T00:31:26.614Z,4.38
2022-11-20T00:33:56.913Z,4.60
2022-11-20T00:36:27.564Z,4.28
2022-11-20T00:38:55.307Z,4.30
2022-11-20T00:41:22.412Z,4.30
2022-11-20T00:43:49.218Z,4.50
2022-11-20T00:46:18.059Z,3.75
2022-11-20T00:48:45.441Z,3.58
2022-11-20T00:51:13.282Z,3.80
2022-11-20T00:53:42.929Z,3.92
2022-11-20T00:56:14.409Z,3.80
2022-11-20T00:58:42.366Z,3.92
2022-11-20T01:01:11.234Z,4.00
2022-11-20T01:03:40.195Z,3.88
2022-11-20T01:06:12.110Z,3.95
2022-11-20T01:08:39.023Z,4.13
2022-11-20T01:11:10.659Z,4.68
2022-11-20T01:13:40.391Z,4.33
2022-11-20T01:16:17.087Z,4.80
2022-11-20T01:18:45.377Z,4.05
2022-11-20T01:21:17.448Z,4.30
2022-11-20T01:23:44.538Z,4.28
2022-11-20T01:26:15.578Z,3.47
2022-11-20T01:28:42.738Z,3.75
2022-11-20T01:31:22.172Z,3.28
2022-11-20T01:33:51.817Z,3.13
2022-11-20T01:36:19.397Z,3.30
2022-11-20T01:38:46.385Z,3.08
2022-11-20T01:41:33.763Z,3.20
2022-11-20T01:44:01.023Z,2.90
2022-11-20T01:46:28.236Z,3.05
2022-11-20T01:49:12.345Z,3.40
2022-11-20T01:51:48.965Z,3.33
2022-11-20T01:54:42.671Z,3.65
2022-11-20T01:57:10.676Z,3.72
2022-11-20T01:59:40.532Z,3.30
2022-11-20T02:02:07.411Z,3.17
2022-11-20T02:04:34.749Z,3.22
2022-11-20T02:07:02.608Z,3.25
2022-11-20T02:09:29.573Z,3.08
2022-11-20T02:11:59.188Z,3.00
2022-11-20T02:14:26.366Z,3.17
2022-11-20T02:16:53.360Z,2.97
2022-11-20T02:19:29.865Z,2.50
2022-11-20T02:22:03.562Z,2.55
2022-11-20T02:24:30.543Z,2.35
2022-11-20T02:26:58.831Z,2.58
2022-11-20T02:29:55.421Z,1.98
2022-11-20T02:32:27.486Z,2.20
2022-11-20T02:34:54.465Z,2.10
2022-11-20T02:37:21.486Z,2.08
2022-11-20T02:39:50.297Z,2.10
2022-11-20T02:42:17.114Z,2.20
2022-11-20T02:44:43.989Z,1.88
2022-11-20T02:47:10.830Z,1.92
2022-11-20T02:49:37.757Z,1.90
2022-11-20T02:52:04.791Z,2.00
2022-11-20T02:54:31.911Z,1.73
2022-11-20T02:56:58.751Z,1.98
2022-11-20T02:59:25.509Z,1.67
2022-11-20T03:01:52.457Z,1.75
2022-11-20T03:04:19.507Z,1.67
2022-11-20T03:06:46.448Z,1.73
2022-11-20T03:09:13.669Z,1.58
2022-11-20T03:11:40.880Z,1.90
2022-11-20T03:14:07.694Z,2.22
2022-11-20T03:16:34.516Z,2.10
2022-11-20T03:19:01.393Z,2.42
2022-11-20T03:21:28.228Z,1.70
2022-11-20T03:23:55.420Z,1.70
2022-11-20T03:26:23.986Z,1.77
2022-11-20T03:28:52.191Z,1.85
2022-11-20T03:31:20.565Z,1.88
2022-11-20T03:33:47.408Z,2.33
2022-11-20T03:36:15.125Z,1.80
2022-11-20T03:38:42.271Z,2.08
2022-11-20T03:41:11.340Z,1.90
2022-11-20T03:43:38.335Z,2.00
2022-11-20T03:46:05.336Z,2.53
2022-11-20T03:48:32.361Z,1.83
2022-11-20T03:51:18.576Z,1.95
2022-11-20T03:53:46.501Z,2.55
2022-11-20T03:56:13.650Z,2.53
2022-11-20T03:58:40.948Z,2.22
2022-11-20T04:01:09.413Z,2.40
2022-11-20T04:03:36.976Z,2.17
2022-11-20T04:06:25.236Z,2.13
2022-11-20T04:08:53.977Z,2.20
2022-11-20T04:11:27.111Z,2.22
2022-11-20T04:13:59.225Z,2.00
2022-11-20T04:16:26.661Z,2.20
2022-11-20T04:18:54.977Z,2.42
2022-11-20T04:21:21.946Z,2.75
2022-11-20T04:23:49.089Z,2.13
2022-11-20T04:26:15.997Z,2.63
2022-11-20T04:28:42.844Z,2.50
2022-11-20T04:31:12.178Z,2.50
2022-11-20T04:33:41.812Z,2.00
2022-11-20T04:36:14.610Z,2.33
2022-11-20T04:38:41.807Z,2.40
2022-11-20T04:41:09.725Z,2.67
2022-11-20T04:43:36.651Z,2.03
2022-11-20T04:46:03.443Z,2.33
2022-11-20T04:48:30.572Z,2.10
2022-11-20T04:50:57.541Z,2.40
2022-11-20T04:53:24.750Z,2.30
2022-11-20T04:55:51.585Z,2.28
2022-11-20T04:58:18.493Z,2.33
2022-11-20T05:00:45.346Z,2.65
2022-11-20T05:03:12.236Z,2.80
2022-11-20T05:05:39.160Z,3.20
2022-11-20T05:08:07.398Z,2.38
2022-11-20T05:10:34.212Z,2.42
2022-11-20T05:13:01.139Z,2.80
2022-11-20T05:15:27.960Z,2.60
2022-11-20T05:17:57.778Z,2.30
2022-11-20T05:20:24.575Z,2.72
2022-11-20T05:22:51.409Z,3.33
2022-11-20T05:25:18.197Z,2.67
2022-11-20T05:27:45.102Z,2.75
2022-11-20T05:30:12.799Z,2.42
2022-11-20T05:32:39.853Z,2.90
2022-11-20T05:35:07.027Z,2.65
2022-11-20T05:37:33.886Z,3.03
2022-11-20T05:40:00.696Z,2.95
2022-11-20T05:42:33.841Z,2.35
2022-11-20T05:45:01.650Z,2.92
2022-11-20T05:47:29.404Z,2.40
2022-11-20T05:49:56.291Z,2.40
2022-11-20T05:52:23.184Z,2.80
2022-11-20T05:54:50.095Z,2.70
2022-11-20T05:57:17.346Z,2.42
2022-11-20T05:59:47.243Z,2.50
2022-11-20T06:02:18.731Z,2.92
2022-11-20T06:04:45.630Z,2.85
2022-11-20T06:07:15.118Z,2.53
2022-11-20T06:09:42.017Z,2.75
2022-11-20T06:12:08.906Z,2.97
2022-11-20T06:14:36.210Z,2.50
2022-11-20T06:17:03.009Z,2.80
2022-11-20T06:19:32.862Z,2.60
2022-11-20T06:22:01.813Z,2.42
2022-11-20T06:24:31.520Z,3.00
2022-11-20T06:26:58.366Z,2.80
2022-11-20T06:29:32.599Z,2.58
2022-11-20T06:32:03.237Z,2.42
2022-11-20T06:34:30.180Z,2.63
2022-11-20T06:36:57.180Z,2.70
2022-11-20T06:39:27.306Z,2.40
2022-11-20T06:41:59.170Z,2.40
2022-11-20T06:44:26.560Z,2.45
2022-11-20T06:46:53.363Z,2.50
2022-11-20T06:49:20.650Z,2.17
2022-11-20T06:51:47.768Z,2.28
2022-11-20T06:54:14.779Z,2.17
2022-11-20T06:56:41.600Z,2.40
2022-11-20T06:59:08.717Z,2.13
2022-11-20T07:01:36.070Z,2.25
2022-11-20T07:04:04.139Z,2.20
2022-11-20T07:06:31.185Z,2.10
2022-11-20T07:09:01.302Z,1.88
2022-11-20T07:11:28.174Z,1.90
2022-11-20T07:13:55.017Z,1.65
2022-11-20T07:16:23.909Z,2.00
2022-11-20T07:18:51.285Z,1.83
2022-11-20T07:21:18.280Z,1.60
2022-11-20T07:23:47.029Z,1.52
2022-11-20T07:26:13.854Z,1.58
2022-11-20T07:28:40.718Z,1.42
2022-11-20T07:31:08.462Z,1.70
2022-11-20T07:33:35.328Z,2.08
2022-11-20T07:36:02.583Z,1.60
2022-11-20T07:38:29.523Z,1.60
2022-11-20T07:41:02.644Z,7.47
2022-11-20T07:43:31.159Z,1.98
2022-11-20T07:46:02.291Z,1.38
2022-11-20T07:48:29.324Z,1.40
2022-11-20T07:50:59.508Z,1.30
2022-11-20T07:53:26.432Z,1.30
2022-11-20T07:55:53.681Z,1.50
2022-11-20T07:58:21.582Z,1.52
2022-11-20T08:00:50.639Z,1.55
2022-11-20T08:03:24.712Z,1.58
2022-11-20T08:05:52.498Z,1.40
2022-11-20T08:08:19.503Z,1.60
2022-11-20T08:10:46.633Z,1.60
2022-11-20T08:13:35.358Z,1.70
2022-11-20T08:16:02.522Z,1.85
2022-11-20T08:18:32.854Z,1.60
2022-11-20T08:21:04.584Z,1.50
2022-11-20T08:23:31.782Z,1.75
2022-11-20T08:25:58.582Z,2.00
2022-11-20T08:28:27.991Z,1.88
2022-11-20T08:31:02.325Z,2.13
2022-11-20T08:33:29.534Z,2.10
2022-11-20T08:36:06.359Z,1.85
2022-11-20T08:38:33.416Z,2.00
2022-11-20T08:41:20.156Z,2.40
2022-11-20T08:43:47.259Z,2.47
2022-11-20T08:46:14.315Z,2.30
2022-11-20T08:48:43.588Z,2.65
2022-11-20T08:51:13.350Z,2.47
2022-11-20T08:53:40.652Z,2.50
2022-11-20T08:56:11.052Z,2.83
2022-11-20T08:59:01.889Z,2.80
2022-11-20T09:01:26.636Z,3.10
2022-11-20T09:03:53.660Z,3.22
2022-11-20T09:06:20.540Z,3.45
2022-11-20T09:08:47.445Z,3.70
2022-11-20T09:11:14.393Z,4.05
2022-11-20T09:13:41.386Z,4.00
2022-11-20T09:16:09.101Z,4.00
2022-11-20T09:18:39.557Z,4.28
2022-11-20T09:21:08.153Z,5.18
2022-11-20T09:23:36.299Z,4.32
2022-11-20T09:26:04.977Z,4.78
2022-11-20T09:28:35.219Z,3.88
2022-11-20T09:31:05.627Z,4.10
2022-11-20T09:33:32.440Z,4.20
2022-11-20T09:36:00.099Z,4.53
2022-11-20T09:38:27.024Z,4.20
2022-11-20T09:40:58.317Z,4.13
2022-11-20T09:44:01.771Z,3.95
2022-11-20T09:46:31.854Z,4.32
2022-11-20T09:49:16.672Z,4.43
2022-11-20T09:51:55.274Z,4.28
2022-11-20T09:54:23.319Z,4.35
2022-11-20T09:57:14.156Z,4.68
2022-11-20T09:59:50.882Z,4.00
2022-11-20T10:02:23.787Z,3.90
2022-11-20T10:04:58.135Z,4.40
2022-11-20T10:07:32.945Z,4.05
2022-11-20T10:10:00.370Z,4.47
2022-11-20T10:12:52.553Z,4.00
2022-11-20T10:16:10.213Z,3.97
2022-11-20T10:19:05.807Z,4.00
2022-11-20T10:21:55.676Z,4.15
2022-11-20T10:24:42.816Z,3.90
2022-11-20T10:27:36.032Z,4.00
2022-11-20T10:30:25.850Z,3.67
2022-11-20T10:32:58.585Z,3.70
2022-11-20T10:35:50.890Z,3.67
2022-11-20T10:38:27.186Z,4.10
2022-11-20T10:41:20.755Z,3.60
2022-11-20T10:43:48.226Z,3.55
2022-11-20T10:46:23.246Z,4.00
2022-11-20T10:48:50.331Z,3.65
2022-11-20T10:51:38.219Z,3.35
2022-11-20T10:54:26.281Z,4.38
2022-11-20T10:56:54.505Z,4.25
2022-11-20T10:59:33.637Z,4.30
2022-11-20T11:02:03.196Z,3.67
2022-11-20T11:04:44.086Z,3.42
2022-11-20T11:07:35.118Z,3.75
2022-11-20T11:10:01.996Z,3.50
2022-11-20T11:12:29.600Z,4.05
2022-11-20T11:14:57.573Z,3.50
2022-11-20T11:17:34.256Z,3.13
2022-11-20T11:20:30.253Z,3.20
2022-11-20T11:22:58.759Z,3.08
2022-11-20T11:25:36.460Z,3.00
2022-11-20T11:28:19.147Z,2.92
2022-11-20T11:30:46.537Z,3.30
2022-11-20T11:33:20.511Z,3.00
2022-11-20T11:35:51.570Z,3.67
2022-11-20T11:38:23.588Z,3.83
2022-11-20T11:40:50.516Z,3.63
2022-11-20T11:43:46.903Z,3.72
2022-11-20T11:46:26.207Z,3.50
2022-11-20T11:49:02.745Z,3.35
2022-11-20T11:51:34.330Z,4.93
2022-11-20T11:54:01.725Z,4.97
2022-11-20T11:56:29.689Z,4.15
2022-11-20T11:59:00.457Z,3.92
2022-11-20T12:02:00.947Z,3.00
2022-11-20T12:04:51.812Z,3.15
2022-11-20T12:07:47.139Z,3.47
2022-11-20T12:10:19.056Z,3.45
2022-11-20T12:12:47.778Z,4.05
2022-11-20T12:15:22.151Z,3.30
2022-11-20T12:17:49.128Z,3.80
2022-11-20T12:20:16.079Z,3.22
2022-11-20T12:23:06.573Z,3.38
2022-11-20T12:25:37.391Z,3.60
2022-11-20T12:28:43.096Z,3.75
2022-11-20T12:31:21.727Z,3.33
2022-11-20T12:34:07.343Z,3.28
2022-11-20T12:36:42.240Z,2.90
2022-11-20T12:39:18.039Z,3.58
2022-11-20T12:42:19.164Z,3.08
2022-11-20T12:45:10.589Z,3.38
2022-11-20T12:48:08.994Z,3.28
2022-11-20T12:51:14.053Z,4.28
2022-11-20T12:53:57.894Z,3.47
2022-11-20T12:56:27.700Z,3.10
2022-11-20T12:59:06.792Z,3.25
2022-11-20T13:01:59.776Z,3.22
2022-11-20T13:04:47.901Z,3.20
2022-11-20T13:07:17.210Z,3.70
2022-11-20T13:09:46.632Z,3.47
2022-11-20T13:12:25.596Z,3.60
2022-11-20T13:15:01.814Z,3.80
2022-11-20T13:17:56.831Z,3.58
2022-11-20T13:20:23.620Z,3.15
2022-11-20T13:23:00.906Z,3.00
2022-11-20T13:25:31.028Z,3.35
2022-11-20T13:27:59.325Z,3.22
2022-11-20T13:30:30.346Z,3.53
2022-11-20T13:32:58.566Z,3.25
2022-11-20T13:35:35.718Z,2.80
2022-11-20T13:38:15.059Z,2.72
2022-11-20T13:40:56.726Z,2.65
2022-11-20T13:43:40.086Z,3.50
2022-11-20T13:46:10.391Z,2.70
2022-11-20T13:48:47.110Z,2.95
2022-11-20T13:51:17.206Z,2.58
2022-11-20T13:53:54.582Z,2.60
2022-11-20T13:56:50.167Z,3.13
2022-11-20T13:59:40.024Z,3.08
2022-11-20T14:02:17.626Z,2.92
2022-11-20T14:04:49.337Z,3.22
2022-11-20T14:07:17.788Z,3.28
2022-11-20T14:09:55.493Z,2.42
2022-11-20T14:12:24.171Z,3.00
2022-11-20T14:14:55.455Z,3.10
2022-11-20T14:17:23.348Z,2.72
2022-11-20T14:19:51.498Z,2.50
2022-11-20T14:22:21.171Z,2.65
2022-11-20T14:24:49.197Z,3.20
2022-11-20T14:27:18.165Z,3.20
2022-11-20T14:29:45.574Z,3.53
2022-11-20T14:32:12.409Z,3.58
2022-11-20T14:34:41.595Z,3.22
2022-11-20T14:37:16.963Z,3.42
2022-11-20T14:39:52.806Z,3.50
2022-11-20T14:42:27.158Z,3.25
2022-11-20T14:44:59.236Z,3.28
2022-11-20T14:47:27.170Z,3.35
2022-11-20T14:49:54.387Z,2.95
2022-11-20T14:52:25.873Z,3.47
2022-11-20T14:54:57.294Z,3.20
2022-11-20T14:57:32.260Z,3.10
2022-11-20T15:00:11.679Z,3.90
2022-11-20T15:02:46.066Z,3.88
2022-11-20T15:05:13.645Z,3.53
2022-11-20T15:07:46.548Z,3.55
2022-11-20T15:10:26.950Z,3.53
2022-11-20T15:13:01.368Z,3.45
2022-11-20T15:15:36.376Z,3.35
2022-11-20T15:18:03.791Z,3.78
2022-11-20T15:20:32.840Z,3.50
2022-11-20T15:22:59.737Z,3.53
2022-11-20T15:25:26.799Z,3.45
2022-11-20T15:27:57.958Z,4.53
2022-11-20T15:30:25.002Z,3.28
2022-11-20T15:32:52.069Z,3.80
2022-11-20T15:35:19.205Z,4.45
2022-11-20T15:37:46.464Z,4.50
2022-11-20T15:40:13.807Z,4.30
2022-11-20T15:43:00.728Z,4.00
2022-11-20T15:45:28.029Z,4.10
2022-11-20T15:47:54.839Z,3.90
2022-11-20T15:50:21.850Z,4.03
2022-11-20T15:52:48.733Z,3.17
2022-11-20T15:55:15.624Z,3.97
2022-11-20T15:57:42.513Z,3.33
2022-11-20T16:00:10.053Z,3.38
2022-11-20T16:02:37.607Z,3.78
2022-11-20T16:05:05.382Z,3.70
2022-11-20T16:07:32.364Z,3.35
2022-11-20T16:09:59.459Z,3.70
2022-11-20T16:12:45.018Z,3.92
2022-11-20T16:15:30.377Z,3.40
2022-11-20T16:17:57.285Z,3.40
2022-11-20T16:20:26.670Z,3.28
2022-11-20T16:22:53.612Z,3.30
2022-11-20T16:25:20.753Z,4.22
2022-11-20T16:27:47.605Z,3.67
2022-11-20T16:30:14.582Z,4.47
2022-11-20T16:32:41.466Z,4.35
2022-11-20T16:35:08.554Z,3.90
2022-11-20T16:37:35.721Z,4.78
2022-11-20T16:40:02.631Z,3.75
2022-11-20T16:42:31.174Z,3.53
2022-11-20T16:44:57.984Z,3.88
2022-11-20T16:47:24.917Z,3.55
2022-11-20T16:49:51.715Z,4.13
2022-11-20T16:52:18.652Z,3.90
2022-11-20T16:54:45.444Z,3.53
2022-11-20T16:57:12.260Z,4.07
2022-11-20T16:59:39.134Z,3.60
2022-11-20T17:02:05.982Z,4.10
2022-11-20T17:04:33.072Z,3.92
2022-11-20T17:07:06.405Z,3.67
2022-11-20T17:09:34.785Z,3.42
2022-11-20T17:12:01.848Z,3.70
2022-11-20T17:14:31.212Z,3.90
2022-11-20T17:16:58.423Z,4.38
2022-11-20T17:19:25.214Z,3.97
2022-11-20T17:21:52.168Z,4.05
2022-11-20T17:24:19.101Z,4.35
2022-11-20T17:26:46.144Z,3.60
2022-11-20T17:29:17.573Z,3.90
2022-11-20T17:31:44.668Z,3.97
2022-11-20T17:34:12.750Z,3.33
2022-11-20T17:36:44.993Z,3.45
2022-11-20T17:39:16.207Z,3.30
2022-11-20T17:41:43.194Z,3.47
2022-11-20T17:44:10.426Z,3.60
2022-11-20T17:46:37.386Z,3.42
2022-11-20T17:49:04.978Z,3.40
2022-11-20T17:51:33.166Z,3.40
2022-11-20T17:54:02.517Z,3.20
2022-11-20T17:56:52.200Z,3.35
2022-11-20T17:59:19.198Z,3.28
2022-11-20T18:01:46.246Z,2.92
2022-11-20T18:04:13.614Z,3.20
2022-11-20T18:06:40.477Z,3.25
2022-11-20T18:09:07.445Z,3.10
2022-11-20T18:11:38.759Z,3.55
2022-11-20T18:14:25.811Z,3.67
2022-11-20T18:16:54.562Z,3.00
2022-11-20T18:19:23.410Z,2.88
2022-11-20T18:21:50.495Z,4.18
2022-11-20T18:24:17.545Z,2.63
2022-11-20T18:26:44.821Z,2.90
2022-11-20T18:29:12.429Z,3.40
2022-11-20T18:31:40.434Z,4.00
2022-11-20T18:34:11.516Z,3.80
2022-11-20T18:36:38.638Z,3.17
2022-11-20T18:39:05.632Z,3.47
2022-11-20T18:41:51.357Z,3.10
2022-11-20T18:44:38.477Z,2.95
2022-11-20T18:47:13.709Z,3.65
2022-11-20T18:49:52.478Z,3.08
2022-11-20T18:52:46.885Z,3.30
2022-11-20T18:55:14.075Z,2.80
2022-11-20T18:57:41.137Z,3.35
2022-11-20T19:00:09.846Z,3.10
2022-11-20T19:02:41.671Z,3.40
2022-11-20T19:05:13.529Z,3.15
2022-11-20T19:07:40.971Z,3.10
2022-11-20T19:10:08.240Z,3.50
2022-11-20T19:12:35.108Z,3.47
2022-11-20T19:15:01.956Z,3.00
2022-11-20T19:17:28.948Z,2.95
2022-11-20T19:19:55.848Z,3.40
2022-11-20T19:22:22.853Z,3.22
2022-11-20T19:24:49.940Z,2.85
2022-11-20T19:27:17.035Z,4.00
2022-11-20T19:29:46.954Z,3.50
2022-11-20T19:32:14.050Z,3.17
2022-11-20T19:34:41.583Z,3.30
2022-11-20T19:37:10.087Z,3.30
2022-11-20T19:39:37.092Z,3.03
2022-11-20T19:42:04.036Z,3.65
2022-11-20T19:44:34.385Z,3.17
2022-11-20T19:47:03.189Z,3.80
2022-11-20T19:49:30.109Z,3.03
2022-11-20T19:51:56.977Z,3.10
2022-11-20T19:54:23.788Z,2.90
2022-11-20T19:56:50.733Z,2.45
2022-11-20T19:59:17.601Z,2.75
2022-11-20T20:01:44.760Z,2.80
2022-11-20T20:04:11.773Z,3.00
2022-11-20T20:06:42.028Z,3.30
2022-11-20T20:09:10.309Z,3.20
2022-11-20T20:11:37.405Z,3.25
2022-11-20T20:14:05.449Z,3.13
2022-11-20T20:16:32.741Z,3.40
2022-11-20T20:19:03.829Z,3.20
2022-11-20T20:21:31.475Z,3.10
2022-11-20T20:23:58.734Z,3.28
2022-11-20T20:26:30.086Z,2.63
2022-11-20T20:28:57.037Z,2.65
2022-11-20T20:31:25.957Z,3.00
2022-11-20T20:33:53.038Z,3.03
2022-11-20T20:36:20.494Z,2.63
2022-11-20T20:38:47.545Z,2.78
2022-11-20T20:41:14.927Z,3.20
2022-11-20T20:44:00.384Z,2.70
2022-11-20T20:46:27.293Z,2.50
2022-11-20T20:48:54.877Z,2.83
2022-11-20T20:51:22.519Z,2.72
2022-11-20T20:53:55.205Z,2.95
2022-11-20T20:56:22.072Z,2.78
2022-11-20T20:58:48.914Z,2.80
2022-11-20T21:01:16.953Z,2.72
2022-11-20T21:03:44.329Z,2.65
2022-11-20T21:06:11.457Z,3.00
2022-11-20T21:08:40.715Z,2.90
2022-11-20T21:11:10.511Z,2.50
2022-11-20T21:13:38.064Z,2.60
2022-11-20T21:16:05.525Z,2.85
2022-11-20T21:18:32.610Z,2.75
2022-11-20T21:21:18.365Z,2.70
2022-11-20T21:23:46.488Z,2.90
2022-11-20T21:26:13.768Z,2.40
2022-11-20T21:28:40.846Z,2.75
2022-11-20T21:31:11.967Z,2.90
2022-11-20T21:33:46.122Z,2.58
2022-11-20T21:36:14.559Z,2.88
2022-11-20T21:38:41.428Z,3.03
2022-11-20T21:41:09.502Z,2.78
2022-11-20T21:43:36.545Z,2.75
2022-11-20T21:46:11.279Z,3.10
2022-11-20T21:48:39.747Z,2.83
2022-11-20T21:51:13.252Z,3.08
2022-11-20T21:53:40.394Z,2.72
2022-11-20T21:56:08.219Z,2.92
2022-11-20T21:58:35.834Z,2.50
2022-11-20T22:01:23.416Z,2.65
2022-11-20T22:03:52.667Z,2.80
2022-11-20T22:06:22.807Z,2.78
2022-11-20T22:08:49.949Z,2.80
2022-11-20T22:11:18.623Z,2.40
2022-11-20T22:14:03.931Z,2.65
2022-11-20T22:16:30.879Z,2.45
2022-11-20T22:18:58.203Z,2.40
2022-11-20T22:21:29.299Z,3.15
2022-11-20T22:23:56.459Z,2.22
2022-11-20T22:26:25.422Z,2.35
2022-11-20T22:28:55.046Z,2.40
2022-11-20T22:31:23.570Z,2.25
2022-11-20T22:33:50.470Z,2.55
2022-11-20T22:36:22.130Z,2.30
2022-11-20T22:38:48.999Z,2.20
2022-11-20T22:41:20.892Z,2.60
2022-11-20T22:43:47.824Z,2.40
2022-11-20T22:46:16.441Z,2.45
2022-11-20T22:48:44.905Z,2.22
2022-11-20T22:51:13.180Z,2.40
2022-11-20T22:53:40.968Z,2.53
2022-11-20T22:56:08.583Z,2.33
2022-11-20T22:58:36.808Z,2.22
2022-11-20T23:01:13.012Z,2.00
2022-11-20T23:03:40.743Z,2.17
2022-11-20T23:06:07.921Z,2.38
2022-11-20T23:08:34.980Z,1.90
2022-11-20T23:11:02.763Z,2.38
2022-11-20T23:13:29.680Z,2.75
2022-11-20T23:16:01.675Z,2.45
2022-11-20T23:18:28.539Z,2.30
2022-11-20T23:20:55.398Z,2.05
2022-11-20T23:23:25.050Z,2.20
2022-11-20T23:25:52.040Z,2.05
2022-11-20T23:28:18.954Z,1.88
2022-11-20T23:30:47.713Z,2.60
2022-11-20T23:33:14.496Z,2.88
2022-11-20T23:35:41.426Z,2.47
2022-11-20T23:38:08.482Z,2.22
2022-11-20T23:40:40.143Z,2.63
2022-11-20T23:43:17.237Z,2.15
2022-11-20T23:45:45.384Z,2.25
2022-11-20T23:48:13.516Z,2.17
2022-11-20T23:50:40.559Z,2.00
2022-11-20T23:53:07.489Z,2.20
2022-11-20T23:55:34.463Z,2.33
2022-11-20T23:58:01.969Z,2.22
